Rbd Italia — ICQC — position and weather

sailwx.info

Track history (hours):
 
Tides and Currents Weather Stations Pressure Air Temp Water Temp Dewpoint Dewpoint Depression Visibility Wind Speed Wind Dir Waves Ship Positions

Rbd Italia

Last reported at 2014-Jul-09 03:05 UTC. Time now 2014-Aug-01 11:51 UTC.
Position N 38°09' W 016°28'.
Warning: this ship's position is 23 days out of date.

Length 229 m; draft 10.1 m.

Type: Cargo ship. MMSI: 247303200.

Date/timePositionNaut miles runAvg speedWind from/ knotsBaromVisibWave heightAir tempDewpointWater temp
2014-Jul-09 03:05N 38°09' W 016°28'712.0
2014-Jul-09 02:29N 38°06' W 016°20'2511.7
2014-Jul-09 00:22N 37°58' W 015°50'1112.0
2014-Jul-08 23:29N 37°54' W 015°38'1111.9
2014-Jul-08 22:31N 37°50' W 015°24'1211.9
2014-Jul-08 21:30N 37°45' W 015°10'1111.8
2014-Jul-08 20:33N 37°41' W 014°57'21311.8
2014-Jul-08 02:33N 36°16' W 010°53'2311.6
2014-Jul-08 00:33N 36°07' W 010°26'1211.5
2014-Jul-07 23:29N 36°01' W 010°12'1011.1
2014-Jul-07 22:33N 35°58' W 010°00'2411.7
2014-Jul-07 20:32N 35°57' W 009°31'1111.5
2014-Jul-07 19:33N 35°57' W 009°17'1111.5
2014-Jul-07 18:33N 35°58' W 009°03'1111.3
2014-Jul-07 17:34N 35°58' W 008°49'  
2014-Jul-05 05:30N 36°52' W 001°34'1312.5
2014-Jul-05 04:26N 37°01' W 001°22'5012.7
2014-Jul-05 00:27N 37°34' W 000°34'1213.0
2014-Jul-04 23:31N 37°44' W 000°25'2612.4
2014-Jul-04 21:25N 38°05' W 000°07'7512.1
2014-Jul-04 15:12N 39°07' E 000°48'811.9
2014-Jul-04 14:33N 39°13' E 000°55'3912.1
2014-Jul-04 11:21N 39°43' E 001°26'1112.2
2014-Jul-04 10:25N 39°52' E 001°35'1112.4
2014-Jul-04 09:33N 40°01' E 001°43'1312.6
2014-Jul-04 08:33N 40°11' E 001°53'1312.6
2014-Jul-04 07:33N 40°20' E 002°04'1312.7
2014-Jul-04 06:33N 40°30' E 002°15'1212.2
2014-Jul-04 05:33N 40°39' E 002°25'1212.1
2014-Jul-04 04:33N 40°49' E 002°35'1212.4
2014-Jul-04 03:33N 40°59' E 002°45'1313.1
2014-Jul-04 02:32N 41°09' E 002°55'1212.1
2014-Jul-04 01:33N 41°18' E 003°06'1313.3
2014-Jul-04 00:33N 41°29' E 003°16'1313.0
2014-Jul-03 23:33N 41°39' E 003°27'1313.0
2014-Jul-03 22:33N 41°49' E 003°38'1312.9
2014-Jul-03 21:33N 41°59' E 003°49'1313.0
2014-Jul-03 20:33N 42°10' E 003°59'1313.0
2014-Jul-03 19:33N 42°20' E 004°09'1313.0
2014-Jul-03 18:33N 42°31' E 004°20'1313.1
2014-Jul-03 17:34N 42°41' E 004°30'1312.9
2014-Jul-03 16:32N 42°52' E 004°41'1212.6
2014-Jul-03 15:33N 43°02' E 004°51'1212.3
2014-Jul-03 14:33N 43°12' E 005°01'1111.3
2014-Jul-03 13:33N 43°23' E 004°57'4 4.2
2014-Jul-03 12:31N 43°26' E 004°52'0 0.0
2014-Jul-03 11:31N 43°26' E 004°52'0 0.0
2014-Jul-03 10:31N 43°26' E 004°52'0 0.0
2014-Jul-03 09:31N 43°26' E 004°52'0 0.0
2014-Jul-03 08:31N 43°26' E 004°52'0 0.0
2014-Jul-03 07:31N 43°26' E 004°52'0 0.0
2014-Jul-03 06:31N 43°26' E 004°52'0 0.0
2014-Jul-03 05:31N 43°26' E 004°52'0 0.0
2014-Jul-03 04:31N 43°26' E 004°52'0 0.0
2014-Jul-03 03:31N 43°26' E 004°52'0 0.0
2014-Jul-03 02:31N 43°26' E 004°52'0 0.0
2014-Jul-03 01:31N 43°26' E 004°52'0 0.0
2014-Jul-03 00:31N 43°26' E 004°52'0 0.0
2014-Jul-02 23:31N 43°26' E 004°52'0 0.0
2014-Jul-02 22:31N 43°26' E 004°52'0 0.0
2014-Jul-02 21:31N 43°26' E 004°52'0 0.0
2014-Jul-02 20:31N 43°26' E 004°52'0 0.0
2014-Jul-02 19:31N 43°26' E 004°52'0 0.0
2014-Jul-02 18:31N 43°26' E 004°52'0 0.0
2014-Jul-02 17:31N 43°26' E 004°52'0 0.0
2014-Jul-02 16:28N 43°26' E 004°52'0 0.0
2014-Jul-02 15:31N 43°26' E 004°52'0 0.0
2014-Jul-02 14:28N 43°26' E 004°52'0 0.0
2014-Jul-02 13:31N 43°26' E 004°52'0 0.0
2014-Jul-02 12:31N 43°26' E 004°52'0 0.0
2014-Jul-02 11:31N 43°26' E 004°52'0 0.0
2014-Jul-02 10:28N 43°26' E 004°52'0 0.0
2014-Jul-02 09:31N 43°26' E 004°52'0 0.0
2014-Jul-02 08:31N 43°26' E 004°52'0 0.0
2014-Jul-02 07:25N 43°26' E 004°52'0 0.0
2014-Jul-02 06:31N 43°26' E 004°52'0 0.0
2014-Jul-02 05:31N 43°26' E 004°52'0 0.0
2014-Jul-02 04:31N 43°26' E 004°52'0 0.0
2014-Jul-02 03:31N 43°26' E 004°52'0 0.0
2014-Jul-02 02:31N 43°26' E 004°52'0 0.0
2014-Jul-02 01:31N 43°26' E 004°52'0 0.0
2014-Jul-02 00:31N 43°26' E 004°52'0 0.0
2014-Jul-01 23:31N 43°26' E 004°52'0 0.0
2014-Jul-01 22:31N 43°26' E 004°52'0 0.0
2014-Jul-01 21:31N 43°26' E 004°52'0 0.0
2014-Jul-01 20:31N 43°26' E 004°52'0 0.0
2014-Jul-01 19:31N 43°26' E 004°52'0 0.0
2014-Jul-01 18:31N 43°26' E 004°52'0 0.0
2014-Jul-01 17:31N 43°26' E 004°52'0 0.0
2014-Jul-01 16:31N 43°26' E 004°52'0 0.0
2014-Jul-01 15:31N 43°26' E 004°52'0 0.0
2014-Jul-01 14:31N 43°26' E 004°52'0 0.0
2014-Jul-01 13:31N 43°26' E 004°52'0 0.0
2014-Jul-01 12:31N 43°26' E 004°52'0 0.0
2014-Jul-01 11:31N 43°26' E 004°52'0 0.0
2014-Jul-01 10:28N 43°26' E 004°52'0 0.0
2014-Jul-01 09:31N 43°26' E 004°52'0 0.0
2014-Jul-01 08:28N 43°26' E 004°52'0 0.0
2014-Jul-01 07:31N 43°26' E 004°52'0 0.0
2014-Jul-01 06:31N 43°26' E 004°52'0 0.0
2014-Jul-01 05:31N 43°26' E 004°52'0 0.0
2014-Jul-01 04:31N 43°26' E 004°52'0 0.0
2014-Jul-01 03:31N 43°26' E 004°52'0 0.0
2014-Jul-01 02:31N 43°26' E 004°52'0 0.0
2014-Jul-01 01:31N 43°26' E 004°52'0 0.0
2014-Jul-01 00:31N 43°26' E 004°52'0 0.0
2014-Jun-30 23:31N 43°26' E 004°52'0 0.0
2014-Jun-30 22:25N 43°26' E 004°52'0 0.0
2014-Jun-30 21:31N 43°26' E 004°52'0 0.0
2014-Jun-30 20:31N 43°26' E 004°52'0 0.0
2014-Jun-30 19:31N 43°26' E 004°52'0 0.0
2014-Jun-30 18:31N 43°26' E 004°52'0 0.0
2014-Jun-30 17:31N 43°26' E 004°52'0 0.0
2014-Jun-30 16:31N 43°26' E 004°52'0 0.0
2014-Jun-30 15:31N 43°26' E 004°52'0 0.0
2014-Jun-30 14:31N 43°26' E 004°52'0 0.0
2014-Jun-30 13:31N 43°26' E 004°52'0 0.0
2014-Jun-30 12:31N 43°26' E 004°52'0 0.0
2014-Jun-30 11:31N 43°26' E 004°52'0 0.0
2014-Jun-30 10:31N 43°26' E 004°52'0 0.0
2014-Jun-30 09:31N 43°26' E 004°52'0 0.0
2014-Jun-30 08:31N 43°26' E 004°52'0 0.0
2014-Jun-30 07:31N 43°26' E 004°52'0 0.0
2014-Jun-30 06:31N 43°26' E 004°52'0 0.0
2014-Jun-30 05:31N 43°26' E 004°52'0 0.0
2014-Jun-30 04:31N 43°26' E 004°52'0 0.0
2014-Jun-30 03:31N 43°26' E 004°52'0 0.0
2014-Jun-30 02:31N 43°26' E 004°52'0 0.0
2014-Jun-30 01:31N 43°26' E 004°52'0 0.0
2014-Jun-30 00:31N 43°26' E 004°52'0 0.0
2014-Jun-29 23:31N 43°26' E 004°52'0 0.0
2014-Jun-29 22:31N 43°26' E 004°52'0 0.0
2014-Jun-29 21:31N 43°26' E 004°52'0 0.0
2014-Jun-29 20:31N 43°26' E 004°52'0 0.0
2014-Jun-29 19:31N 43°26' E 004°52'0 0.0
2014-Jun-29 18:31N 43°26' E 004°52'0 0.0
2014-Jun-29 17:25N 43°26' E 004°52'0 0.0
2014-Jun-29 16:31N 43°26' E 004°52'0 0.0
2014-Jun-29 15:28N 43°26' E 004°52'0 0.0
2014-Jun-29 14:31N 43°26' E 004°52'0 0.0
2014-Jun-29 13:31N 43°26' E 004°52'0 0.0
2014-Jun-29 12:31N 43°26' E 004°52'0 0.0
2014-Jun-29 11:31N 43°26' E 004°52'0 0.0
2014-Jun-29 10:28N 43°26' E 004°52'0 0.0
2014-Jun-29 09:31N 43°26' E 004°52'0 0.0
2014-Jun-29 08:31N 43°26' E 004°52'0 0.0
2014-Jun-29 07:31N 43°26' E 004°52'0 0.0
2014-Jun-29 06:31N 43°26' E 004°52'0 0.0
2014-Jun-29 05:31N 43°26' E 004°52'0 0.0
2014-Jun-29 04:31N 43°26' E 004°52'0 0.0
2014-Jun-29 03:31N 43°26' E 004°52'  
Track history (hours):
 
Tides and Currents Weather Stations Pressure Air Temp Water Temp Dewpoint Dewpoint Depression Visibility Wind Speed Wind Dir Waves Ship Positions

Rbd Italia

Last reported at 2014-Jul-09 03:05 UTC. Time now 2014-Aug-01 11:51 UTC.
Position N 38°09' W 016°28'.
Warning: this ship's position is 23 days out of date.

Length 229 m; draft 10.1 m.

Type: Cargo ship. MMSI: 247303200.

Date/timePositionNaut miles runAvg speedWind from/ knotsBaromVisibWave heightAir tempDewpointWater temp
2014-Jul-09 03:05N 38°09' W 016°28'712.0
2014-Jul-09 02:29N 38°06' W 016°20'2511.7
2014-Jul-09 00:22N 37°58' W 015°50'1112.0
2014-Jul-08 23:29N 37°54' W 015°38'1111.9
2014-Jul-08 22:31N 37°50' W 015°24'1211.9
2014-Jul-08 21:30N 37°45' W 015°10'1111.8
2014-Jul-08 20:33N 37°41' W 014°57'21311.8
2014-Jul-08 02:33N 36°16' W 010°53'2311.6
2014-Jul-08 00:33N 36°07' W 010°26'1211.5
2014-Jul-07 23:29N 36°01' W 010°12'1011.1
2014-Jul-07 22:33N 35°58' W 010°00'2411.7
2014-Jul-07 20:32N 35°57' W 009°31'1111.5
2014-Jul-07 19:33N 35°57' W 009°17'1111.5
2014-Jul-07 18:33N 35°58' W 009°03'1111.3
2014-Jul-07 17:34N 35°58' W 008°49'  
2014-Jul-05 05:30N 36°52' W 001°34'1312.5
2014-Jul-05 04:26N 37°01' W 001°22'5012.7
2014-Jul-05 00:27N 37°34' W 000°34'1213.0
2014-Jul-04 23:31N 37°44' W 000°25'2612.4
2014-Jul-04 21:25N 38°05' W 000°07'7512.1
2014-Jul-04 15:12N 39°07' E 000°48'811.9
2014-Jul-04 14:33N 39°13' E 000°55'3912.1
2014-Jul-04 11:21N 39°43' E 001°26'1112.2
2014-Jul-04 10:25N 39°52' E 001°35'1112.4
2014-Jul-04 09:33N 40°01' E 001°43'1312.6
2014-Jul-04 08:33N 40°11' E 001°53'1312.6
2014-Jul-04 07:33N 40°20' E 002°04'1312.7
2014-Jul-04 06:33N 40°30' E 002°15'1212.2
2014-Jul-04 05:33N 40°39' E 002°25'1212.1
2014-Jul-04 04:33N 40°49' E 002°35'1212.4
2014-Jul-04 03:33N 40°59' E 002°45'1313.1
2014-Jul-04 02:32N 41°09' E 002°55'1212.1
2014-Jul-04 01:33N 41°18' E 003°06'1313.3
2014-Jul-04 00:33N 41°29' E 003°16'1313.0
2014-Jul-03 23:33N 41°39' E 003°27'1313.0
2014-Jul-03 22:33N 41°49' E 003°38'1312.9
2014-Jul-03 21:33N 41°59' E 003°49'1313.0
2014-Jul-03 20:33N 42°10' E 003°59'1313.0
2014-Jul-03 19:33N 42°20' E 004°09'1313.0
2014-Jul-03 18:33N 42°31' E 004°20'1313.1
2014-Jul-03 17:34N 42°41' E 004°30'1312.9
2014-Jul-03 16:32N 42°52' E 004°41'1212.6
2014-Jul-03 15:33N 43°02' E 004°51'1212.3
2014-Jul-03 14:33N 43°12' E 005°01'1111.3
2014-Jul-03 13:33N 43°23' E 004°57'4 4.2
2014-Jul-03 12:31N 43°26' E 004°52'0 0.0
2014-Jul-03 11:31N 43°26' E 004°52'0 0.0
2014-Jul-03 10:31N 43°26' E 004°52'0 0.0
2014-Jul-03 09:31N 43°26' E 004°52'0 0.0
2014-Jul-03 08:31N 43°26' E 004°52'0 0.0
2014-Jul-03 07:31N 43°26' E 004°52'0 0.0
2014-Jul-03 06:31N 43°26' E 004°52'0 0.0
2014-Jul-03 05:31N 43°26' E 004°52'0 0.0
2014-Jul-03 04:31N 43°26' E 004°52'0 0.0
2014-Jul-03 03:31N 43°26' E 004°52'0 0.0
2014-Jul-03 02:31N 43°26' E 004°52'0 0.0
2014-Jul-03 01:31N 43°26' E 004°52'0 0.0
2014-Jul-03 00:31N 43°26' E 004°52'0 0.0
2014-Jul-02 23:31N 43°26' E 004°52'0 0.0
2014-Jul-02 22:31N 43°26' E 004°52'0 0.0
2014-Jul-02 21:31N 43°26' E 004°52'0 0.0
2014-Jul-02 20:31N 43°26' E 004°52'0 0.0
2014-Jul-02 19:31N 43°26' E 004°52'0 0.0
2014-Jul-02 18:31N 43°26' E 004°52'0 0.0
2014-Jul-02 17:31N 43°26' E 004°52'0 0.0
2014-Jul-02 16:28N 43°26' E 004°52'0 0.0
2014-Jul-02 15:31N 43°26' E 004°52'0 0.0
2014-Jul-02 14:28N 43°26' E 004°52'0 0.0
2014-Jul-02 13:31N 43°26' E 004°52'0 0.0
2014-Jul-02 12:31N 43°26' E 004°52'0 0.0
2014-Jul-02 11:31N 43°26' E 004°52'0 0.0
2014-Jul-02 10:28N 43°26' E 004°52'0 0.0
2014-Jul-02 09:31N 43°26' E 004°52'0 0.0
2014-Jul-02 08:31N 43°26' E 004°52'0 0.0
2014-Jul-02 07:25N 43°26' E 004°52'0 0.0
2014-Jul-02 06:31N 43°26' E 004°52'0 0.0
2014-Jul-02 05:31N 43°26' E 004°52'0 0.0
2014-Jul-02 04:31N 43°26' E 004°52'0 0.0
2014-Jul-02 03:31N 43°26' E 004°52'0 0.0
2014-Jul-02 02:31N 43°26' E 004°52'0 0.0
2014-Jul-02 01:31N 43°26' E 004°52'0 0.0
2014-Jul-02 00:31N 43°26' E 004°52'0 0.0
2014-Jul-01 23:31N 43°26' E 004°52'0 0.0
2014-Jul-01 22:31N 43°26' E 004°52'0 0.0
2014-Jul-01 21:31N 43°26' E 004°52'0 0.0
2014-Jul-01 20:31N 43°26' E 004°52'0 0.0
2014-Jul-01 19:31N 43°26' E 004°52'0 0.0
2014-Jul-01 18:31N 43°26' E 004°52'0 0.0
2014-Jul-01 17:31N 43°26' E 004°52'0 0.0
2014-Jul-01 16:31N 43°26' E 004°52'0 0.0
2014-Jul-01 15:31N 43°26' E 004°52'0 0.0
2014-Jul-01 14:31N 43°26' E 004°52'0 0.0
2014-Jul-01 13:31N 43°26' E 004°52'0 0.0
2014-Jul-01 12:31N 43°26' E 004°52'0 0.0
2014-Jul-01 11:31N 43°26' E 004°52'0 0.0
2014-Jul-01 10:28N 43°26' E 004°52'0 0.0
2014-Jul-01 09:31N 43°26' E 004°52'0 0.0
2014-Jul-01 08:28N 43°26' E 004°52'0 0.0
2014-Jul-01 07:31N 43°26' E 004°52'0 0.0
2014-Jul-01 06:31N 43°26' E 004°52'0 0.0
2014-Jul-01 05:31N 43°26' E 004°52'0 0.0
2014-Jul-01 04:31N 43°26' E 004°52'0 0.0
2014-Jul-01 03:31N 43°26' E 004°52'0 0.0
2014-Jul-01 02:31N 43°26' E 004°52'0 0.0
2014-Jul-01 01:31N 43°26' E 004°52'0 0.0
2014-Jul-01 00:31N 43°26' E 004°52'0 0.0
2014-Jun-30 23:31N 43°26' E 004°52'0 0.0
2014-Jun-30 22:25N 43°26' E 004°52'0 0.0
2014-Jun-30 21:31N 43°26' E 004°52'0 0.0
2014-Jun-30 20:31N 43°26' E 004°52'0 0.0
2014-Jun-30 19:31N 43°26' E 004°52'0 0.0
2014-Jun-30 18:31N 43°26' E 004°52'0 0.0
2014-Jun-30 17:31N 43°26' E 004°52'0 0.0
2014-Jun-30 16:31N 43°26' E 004°52'0 0.0
2014-Jun-30 15:31N 43°26' E 004°52'0 0.0
2014-Jun-30 14:31N 43°26' E 004°52'0 0.0
2014-Jun-30 13:31N 43°26' E 004°52'0 0.0
2014-Jun-30 12:31N 43°26' E 004°52'0 0.0
2014-Jun-30 11:31N 43°26' E 004°52'0 0.0
2014-Jun-30 10:31N 43°26' E 004°52'0 0.0
2014-Jun-30 09:31N 43°26' E 004°52'0 0.0
2014-Jun-30 08:31N 43°26' E 004°52'0 0.0
2014-Jun-30 07:31N 43°26' E 004°52'0 0.0
2014-Jun-30 06:31N 43°26' E 004°52'0 0.0
2014-Jun-30 05:31N 43°26' E 004°52'0 0.0
2014-Jun-30 04:31N 43°26' E 004°52'0 0.0
2014-Jun-30 03:31N 43°26' E 004°52'0 0.0
2014-Jun-30 02:31N 43°26' E 004°52'0 0.0
2014-Jun-30 01:31N 43°26' E 004°52'0 0.0
2014-Jun-30 00:31N 43°26' E 004°52'0 0.0
2014-Jun-29 23:31N 43°26' E 004°52'0 0.0
2014-Jun-29 22:31N 43°26' E 004°52'0 0.0
2014-Jun-29 21:31N 43°26' E 004°52'0 0.0
2014-Jun-29 20:31N 43°26' E 004°52'0 0.0
2014-Jun-29 19:31N 43°26' E 004°52'0 0.0
2014-Jun-29 18:31N 43°26' E 004°52'0 0.0
2014-Jun-29 17:25N 43°26' E 004°52'0 0.0
2014-Jun-29 16:31N 43°26' E 004°52'0 0.0
2014-Jun-29 15:28N 43°26' E 004°52'0 0.0
2014-Jun-29 14:31N 43°26' E 004°52'0 0.0
2014-Jun-29 13:31N 43°26' E 004°52'0 0.0
2014-Jun-29 12:31N 43°26' E 004°52'0 0.0
2014-Jun-29 11:31N 43°26' E 004°52'0 0.0
2014-Jun-29 10:28N 43°26' E 004°52'0 0.0
2014-Jun-29 09:31N 43°26' E 004°52'0 0.0
2014-Jun-29 08:31N 43°26' E 004°52'0 0.0
2014-Jun-29 07:31N 43°26' E 004°52'0 0.0
2014-Jun-29 06:31N 43°26' E 004°52'0 0.0
2014-Jun-29 05:31N 43°26' E 004°52'0 0.0
2014-Jun-29 04:31N 43°26' E 004°52'0 0.0
2014-Jun-29 03:31N 43°26' E 004°52'  

Dump ship's entire track history